Time;durP1;ratioP1;P1;durP2;ratioP2;P2;SDS_P1;SDS_P2;PMS_P1;PMS_P2;Temp;Humidity;BMP_temperature;BMP_pressure;BME280_temperature;BME280_humidity;BME280_pressure;Samples;Min_cycle;Max_cycle;Signal;HPM_P1;HPM_P2
2022/01/06 00:02:13;;;;;;;14.30;2.60;;;;;;;-142.75;100.00;78295.06;5048804;28;20025;-66
2022/01/06 00:04:38;;;;;;;11.10;2.20;;;;;;;-142.75;100.00;78299.00;5048729;28;20513;-66
2022/01/06 00:07:04;;;;;;;12.38;2.22;;;;;;;-142.75;100.00;78291.09;5049237;28;20482;-66
2022/01/06 00:09:29;;;;;;;16.42;2.47;;;;;;;-142.75;100.00;78299.00;5036128;28;20029;-66
2022/01/06 00:11:54;;;;;;;22.30;2.70;;;;;;;-142.75;100.00;78306.88;5032688;28;20104;-66
2022/01/06 00:14:57;;;;;;;24.20;2.80;;;;;;;-142.75;100.00;78310.81;5032547;28;20310;-67
2022/01/06 00:25:17;;;;;;;17.33;2.90;;;;;;;-142.75;100.00;78322.63;5032498;28;20564;-66
2022/01/06 00:27:42;;;;;;;14.38;3.00;;;;;;;-142.75;100.00;78310.81;5032310;28;20021;-66
2022/01/06 00:30:08;;;;;;;25.70;3.10;;;;;;;-142.75;100.00;78310.81;5031780;28;20025;-66
2022/01/06 00:32:34;;;;;;;16.35;2.95;;;;;;;-142.75;100.00;78306.88;5032259;28;20028;-66
2022/01/06 00:34:59;;;;;;;12.13;2.28;;;;;;;-142.75;100.00;78306.88;5032047;28;20033;-67
2022/01/06 00:37:24;;;;;;;20.70;2.05;;;;;;;-142.75;100.00;78314.75;5014490;28;20091;-66
2022/01/06 00:39:50;;;;;;;21.10;2.53;;;;;;;-142.75;100.00;78330.50;5034266;28;20027;-65
2022/01/06 00:42:16;;;;;;;15.85;2.70;;;;;;;-142.75;100.00;78338.38;5014384;28;20052;-66
2022/01/06 00:44:44;;;;;;;16.20;2.73;;;;;;;-142.75;100.00;78354.13;5031971;28;20021;-66
2022/01/06 00:47:09;;;;;;;19.30;2.70;;;;;;;-142.75;100.00;78354.13;5014484;28;20120;-66
2022/01/06 00:49:34;;;;;;;16.43;2.63;;;;;;;-142.75;100.00;78358.06;5043519;28;20095;-66
2022/01/06 00:51:59;;;;;;;19.33;2.27;;;;;;;-142.75;100.00;78354.13;5043892;28;20757;-66
2022/01/06 00:54:25;;;;;;;17.87;2.13;;;;;;;-142.75;100.00;78362.00;5017003;28;20288;-66
2022/01/06 00:56:50;;;;;;;16.98;2.05;;;;;;;-142.75;100.00;78365.94;5035395;28;20788;-66
2022/01/06 00:59:16;;;;;;;18.88;2.97;;;;;;;-142.75;100.00;78369.88;5033986;28;20079;-66
2022/01/06 01:01:41;;;;;;;16.42;2.22;;;;;;;-142.75;100.00;78373.81;5033612;28;20074;-66
2022/01/06 01:04:06;;;;;;;12.33;3.57;;;;;;;-142.75;100.00;78381.69;5051293;28;20013;-65
2022/01/06 01:06:32;;;;;;;15.32;3.60;;;;;;;-142.75;100.00;78403.38;5051513;28;20021;-67
2022/01/06 01:08:57;;;;;;;16.80;4.40;;;;;;;-142.75;100.00;78423.06;5051059;28;20029;-66
2022/01/06 01:11:22;;;;;;;20.83;3.70;;;;;;;-142.75;100.00;78419.13;5051432;28;20025;-67
2022/01/06 01:13:55;;;;;;;16.30;2.53;;;;;;;-142.75;100.00;78417.16;5051207;28;20275;-66
2022/01/06 01:16:30;;;;;;;16.60;2.30;;;;;;;-142.75;100.00;78417.16;5025221;28;20036;-66
2022/01/06 01:18:57;;;;;;;16.13;2.40;;;;;;;-142.75;100.00;78417.16;5033122;28;20017;-66
2022/01/06 01:21:26;;;;;;;11.50;2.57;;;;;;;-142.75;100.00;78425.03;5051032;28;20083;-66
2022/01/06 01:23:56;;;;;;;11.33;1.83;;;;;;;-142.75;100.00;78428.97;5051112;28;20078;-66
2022/01/06 01:26:22;;;;;;;11.93;1.80;;;;;;;-142.75;100.00;78428.97;5035740;28;20028;-67
2022/01/06 01:28:50;;;;;;;13.68;2.55;;;;;;;-142.75;100.00;78428.97;5020055;28;20179;-66
2022/01/06 01:33:44;;;;;;;16.83;2.30;;;;;;;-142.75;100.00;78428.97;5037980;28;20029;-66
2022/01/06 01:36:09;;;;;;;;;;;;;;;-142.75;100.00;78428.97;5044937;28;20510;-66
2022/01/06 01:38:37;;;;;;;14.37;2.87;;;;;;;-142.75;100.00;78425.03;5050551;28;19955;-66
2022/01/06 01:41:03;;;;;;;16.70;2.40;;;;;;;-142.75;100.00;78417.16;5049354;28;20032;-66
2022/01/06 01:43:29;;;;;;;15.23;2.20;;;;;;;-142.75;100.00;78423.06;5050761;28;20024;-66
2022/01/06 01:45:57;;;;;;;13.38;2.08;;;;;;;-142.75;100.00;78423.06;5024685;28;21163;-66
2022/01/06 01:48:29;;;;;;;13.57;2.00;;;;;;;-142.75;100.00;78432.91;5051024;28;20021;-66
2022/01/06 01:50:54;;;;;;;20.33;2.37;;;;;;;-142.75;100.00;78428.97;5045897;28;20159;-66
2022/01/06 01:53:19;;;;;;;14.20;3.38;;;;;;;-142.75;100.00;78428.97;5044628;28;20541;-66
2022/01/06 01:55:45;;;;;;;21.35;2.20;;;;;;;-142.75;100.00;78444.72;5050965;28;20493;-66
2022/01/06 01:58:11;;;;;;;19.58;1.90;;;;;;;-142.75;100.00;78444.72;5037463;28;20034;-65
2022/01/06 02:00:37;;;;;;;14.70;2.63;;;;;;;-142.75;100.00;78442.75;5030695;28;20404;-66
2022/01/06 02:03:02;;;;;;;14.80;2.15;;;;;;;-142.75;100.00;78438.81;5030772;28;20025;-66
2022/01/06 02:05:28;;;;;;;12.95;3.03;;;;;;;-142.75;100.00;78440.78;5030733;28;20017;-66
2022/01/06 02:07:55;;;;;;;;;;;;;;;-142.75;100.00;78438.81;5013067;28;20040;-67
2022/01/06 02:10:20;;;;;;;14.77;3.40;;;;;;;-142.75;100.00;78450.63;5012701;28;20390;-66
2022/01/06 02:12:48;;;;;;;14.27;2.47;;;;;;;-142.75;100.00;78444.72;5030337;28;20100;-67
2022/01/06 02:15:14;;;;;;;14.87;1.73;;;;;;;-142.75;100.00;78448.66;5030216;28;20034;-66
2022/01/06 02:17:40;;;;;;;10.63;2.63;;;;;;;-142.75;100.00;78438.81;5031007;28;20401;-66
2022/01/06 02:20:08;;;;;;;7.38;1.58;;;;;;;-142.75;100.00;78436.84;5029802;28;20025;-66
2022/01/06 02:22:34;;;;;;;11.33;2.30;;;;;;;-142.75;100.00;78425.03;5030197;28;20029;-66
2022/01/06 02:25:20;;;;;;;14.35;2.00;;;;;;;-142.75;100.00;78413.22;5030226;28;20036;-66
2022/01/06 02:27:48;;;;;;;13.83;1.87;;;;;;;-142.75;100.00;78419.13;5012334;28;20376;-66
2022/01/06 02:30:14;;;;;;;11.83;1.70;;;;;;;-142.75;100.00;78425.03;5029711;28;20029;-66
2022/01/06 02:32:40;;;;;;;14.70;1.90;;;;;;;-142.75;100.00;78436.84;5029366;28;20025;-65
2022/01/06 02:35:06;;;;;;;;;;;;;;;-142.75;100.00;78436.84;5030357;28;20032;-66
2022/01/06 02:37:32;;;;;;;13.23;1.80;;;;;;;-142.75;100.00;78450.63;5029852;28;20449;-66
2022/01/06 02:39:57;;;;;;;11.60;1.92;;;;;;;-142.75;100.00;78442.75;5029366;28;20072;-66
2022/01/06 02:42:23;;;;;;;13.10;1.77;;;;;;;-142.75;100.00;78454.56;5012203;28;20025;-67
2022/01/06 02:44:49;;;;;;;11.73;2.20;;;;;;;-142.75;100.00;78456.53;5029966;28;20271;-66
2022/01/06 02:47:14;;;;;;;18.17;2.25;;;;;;;-142.75;100.00;78460.47;5030159;28;20033;-66
2022/01/06 02:49:39;;;;;;;11.55;2.17;;;;;;;-142.75;100.00;78468.34;5029727;28;20021;-66
2022/01/06 02:52:05;;;;;;;15.63;2.30;;;;;;;-142.75;100.00;78470.31;5029826;28;20107;-66
2022/01/06 02:54:30;;;;;;;9.55;1.65;;;;;;;-142.75;100.00;78480.16;5011959;28;20033;-66
2022/01/06 02:56:55;;;;;;;5.40;1.75;;;;;;;-142.75;100.00;78495.94;5029143;28;20044;-66
2022/01/06 02:59:21;;;;;;;6.25;1.73;;;;;;;-142.75;100.00;78521.53;5029179;28;20017;-64
2022/01/06 03:01:46;;;;;;;10.25;1.33;;;;;;;-142.75;100.00;78527.44;5029631;28;20032;-66
2022/01/06 03:04:12;;;;;;;14.77;1.97;;;;;;;-142.75;100.00;78555.00;5011958;28;20026;-66
2022/01/06 03:06:39;;;;;;;12.65;1.80;;;;;;;-142.75;100.00;78547.13;5011814;28;20095;-66
2022/01/06 03:09:05;;;;;;;11.17;1.80;;;;;;;-142.75;100.00;78545.16;5011553;28;20055;-66
2022/01/06 03:11:32;;;;;;;7.17;1.70;;;;;;;-142.75;100.00;78560.91;5029497;28;20036;-66
2022/01/06 03:13:58;;;;;;;8.40;1.67;;;;;;;-142.75;100.00;78570.75;5029257;28;20056;-65
2022/01/06 03:16:23;;;;;;;12.32;2.28;;;;;;;-142.75;100.00;78566.81;5029461;28;20053;-67
2022/01/06 03:18:48;;;;;;;14.90;2.13;;;;;;;-142.75;100.00;78562.88;5029870;28;20258;-66
2022/01/06 03:21:14;;;;;;;11.13;2.00;;;;;;;-142.75;100.00;78556.97;5029289;28;20056;-66
2022/01/06 03:23:40;;;;;;;10.55;1.65;;;;;;;-142.75;100.00;78541.22;5015939;28;20799;-66
2022/01/06 03:26:05;;;;;;;14.45;2.22;;;;;;;-142.75;100.00;78535.31;5049173;28;20504;-66
2022/01/06 03:28:31;;;;;;;10.02;1.60;;;;;;;-142.75;100.00;78515.63;5048938;28;20025;-66
2022/01/06 03:30:56;;;;;;;17.67;2.25;;;;;;;-142.75;100.00;78515.63;5049096;28;20029;-66
2022/01/06 03:33:21;;;;;;;17.40;2.85;;;;;;;-142.75;100.00;78513.66;5027904;28;20104;-66
2022/01/06 03:35:46;;;;;;;10.40;2.35;;;;;;;-142.75;100.00;78509.72;5029369;28;20100;-66
2022/01/06 03:38:12;;;;;;;12.07;1.90;;;;;;;-142.75;100.00;78515.63;5011207;28;20088;-66
2022/01/06 03:40:39;;;;;;;11.73;1.95;;;;;;;-142.75;100.00;78519.56;5011430;28;20037;-66
2022/01/06 03:43:04;;;;;;;16.00;2.20;;;;;;;-142.75;100.00;78513.66;5031286;28;20028;-66
2022/01/06 03:45:31;;;;;;;22.25;2.13;;;;;;;-142.75;100.00;78505.78;5033150;28;20108;-65
2022/01/06 03:47:56;;;;;;;9.57;1.50;;;;;;;-142.75;100.00;78509.72;5033225;28;20025;-67
2022/01/06 03:50:22;;;;;;;5.18;1.05;;;;;;;-142.75;100.00;78558.94;5033133;28;20075;-66
2022/01/06 03:52:47;;;;;;;17.50;2.67;;;;;;;-142.75;100.00;78594.41;5015286;28;20025;-67
2022/01/06 03:55:17;;;;;;;9.27;1.90;;;;;;;-142.75;100.00;78598.34;5032945;28;20379;-66
2022/01/06 03:57:43;;;;;;;13.30;2.00;;;;;;;-142.75;100.00;78606.22;5032376;28;20274;-66
2022/01/06 04:00:11;;;;;;;6.65;1.25;;;;;;;-142.75;100.00;78604.25;5032514;28;20021;-66
2022/01/06 04:02:37;;;;;;;10.63;1.67;;;;;;;-142.75;100.00;78594.41;5015162;28;20029;-66
2022/01/06 04:05:03;;;;;;;2.45;0.60;;;;;;;-142.75;100.00;78586.53;5015055;28;20024;-66
2022/01/06 04:07:28;;;;;;;;;;;;;;;-142.75;100.00;78586.53;5033250;28;20029;-66
2022/01/06 04:09:53;;;;;;;5.13;1.00;;;;;;;-142.75;100.00;78586.53;5032354;28;19919;-65
2022/01/06 04:12:19;;;;;;;7.70;1.07;;;;;;;-142.75;100.00;78578.63;5015117;28;20644;-66
2022/01/06 04:14:44;;;;;;;9.67;1.30;;;;;;;-142.75;100.00;78578.63;5052900;22;20320;-67
2022/01/06 04:17:09;;;;;;;8.47;1.27;;;;;;;-142.75;100.00;78578.63;5048942;28;20119;-67
2022/01/06 04:19:35;;;;;;;8.17;0.90;;;;;;;-142.75;100.00;78582.59;5051635;28;20282;-66
2022/01/06 04:22:01;;;;;;;6.45;1.10;;;;;;;-142.75;100.00;78570.75;5052337;28;20317;-67
2022/01/06 04:24:26;;;;;;;8.55;1.83;;;;;;;-142.75;100.00;78572.72;5034406;28;20452;-67
2022/01/06 04:26:52;;;;;;;7.10;1.25;;;;;;;-142.75;100.00;78568.78;5052271;28;20052;-67
2022/01/06 04:29:17;;;;;;;10.03;1.10;;;;;;;-142.75;100.00;78560.91;5051212;28;20108;-67
2022/01/06 04:31:42;;;;;;;6.95;1.15;;;;;;;-142.75;100.00;78555.00;5052248;28;20526;-67
2022/01/06 04:34:07;;;;;;;10.23;1.20;;;;;;;-142.75;100.00;78551.06;5034066;28;20021;-67
2022/01/06 04:36:33;;;;;;;9.93;1.38;;;;;;;-142.75;100.00;78551.06;5046385;28;20057;-68
2022/01/06 04:38:58;;;;;;;5.43;1.23;;;;;;;-142.75;100.00;78555.00;5032001;28;20027;-67
2022/01/06 04:41:23;;;;;;;6.37;1.03;;;;;;;-142.75;100.00;78570.75;5032261;28;20264;-67
2022/01/06 04:43:49;;;;;;;7.17;1.43;;;;;;;-142.75;100.00;78570.75;5032053;28;20275;-67
2022/01/06 04:46:15;;;;;;;5.47;1.05;;;;;;;-142.75;100.00;78570.75;5031878;28;20036;-66
2022/01/06 04:48:40;;;;;;;8.60;1.47;;;;;;;-142.75;100.00;78578.63;5014858;28;20025;-67
2022/01/06 04:51:07;;;;;;;6.13;0.77;;;;;;;-142.75;100.00;78594.41;5032096;28;20032;-67
2022/01/06 04:53:33;;;;;;;13.77;1.10;;;;;;;-142.75;100.00;78590.47;5039568;28;20025;-67
2022/01/06 04:55:59;;;;;;;5.75;1.00;;;;;;;-142.75;100.00;78578.63;5051292;28;20032;-67
2022/01/06 04:58:25;;;;;;;6.93;1.20;;;;;;;-142.75;100.00;78578.63;5051320;28;20050;-67
2022/01/06 05:00:50;;;;;;;9.70;1.33;;;;;;;-142.75;100.00;78570.75;5033444;28;20027;-67
2022/01/06 05:03:16;;;;;;;8.47;1.43;;;;;;;-142.75;100.00;78574.69;5051619;28;20031;-67
2022/01/06 05:05:41;;;;;;;7.13;1.05;;;;;;;-142.75;100.00;78574.69;5051468;28;20309;-67
2022/01/06 05:08:06;;;;;;;4.30;0.77;;;;;;;-142.75;100.00;78582.59;5051206;28;20524;-67
2022/01/06 05:10:32;;;;;;;10.20;1.70;;;;;;;-142.75;100.00;78592.44;5051530;28;20040;-67
2022/01/06 05:12:57;;;;;;;7.00;1.17;;;;;;;-142.75;100.00;78606.22;5051423;28;20039;-67
2022/01/06 05:15:22;;;;;;;8.53;1.20;;;;;;;-142.75;100.00;78602.28;5051035;28;20092;-67
2022/01/06 05:17:48;;;;;;;6.67;1.13;;;;;;;-142.75;100.00;78614.09;5051536;28;20282;-67
2022/01/06 05:20:13;;;;;;;10.13;1.83;;;;;;;-142.75;100.00;78614.09;5051515;28;20555;-66
2022/01/06 05:22:44;;;;;;;8.90;1.27;;;;;;;-142.75;100.00;78621.97;5051183;28;20342;-67
2022/01/06 05:25:11;;;;;;;7.73;1.00;;;;;;;-142.75;100.00;78625.91;5051032;28;20082;-67
2022/01/06 05:27:36;;;;;;;10.00;1.27;;;;;;;-142.75;100.00;78621.97;5051270;28;20029;-67
2022/01/06 05:30:01;;;;;;;6.37;1.27;;;;;;;-142.75;100.00;78621.97;5050950;28;20109;-66
2022/01/06 05:32:27;;;;;;;8.77;1.02;;;;;;;-142.75;100.00;78620.00;5051065;28;20286;-66
2022/01/06 05:34:52;;;;;;;11.30;1.50;;;;;;;-142.75;100.00;78618.03;5050959;28;20020;-66
2022/01/06 05:37:18;;;;;;;6.93;1.13;;;;;;;-142.75;100.00;78614.09;5051015;28;20477;-67
2022/01/06 05:39:43;;;;;;;5.28;1.20;;;;;;;-142.75;100.00;78608.19;5050954;28;20047;-67
2022/01/06 05:42:10;;;;;;;7.78;1.50;;;;;;;-142.75;100.00;78602.28;5050674;28;20056;-66
2022/01/06 05:44:35;;;;;;;7.97;1.20;;;;;;;-142.75;100.00;78598.34;5050637;28;20024;-67
2022/01/06 05:47:01;;;;;;;12.60;1.20;;;;;;;-142.75;100.00;78596.38;5050767;28;20025;-66
2022/01/06 05:49:26;;;;;;;7.78;1.25;;;;;;;-142.75;100.00;78594.41;5050800;28;20044;-67
2022/01/06 05:51:51;;;;;;;9.27;1.50;;;;;;;-142.75;100.00;78588.50;5050686;28;20390;-67
2022/01/06 05:54:17;;;;;;;5.43;1.13;;;;;;;-142.75;100.00;78598.34;5050540;28;20051;-67
2022/01/06 05:56:42;;;;;;;7.60;1.23;;;;;;;-142.75;100.00;78590.47;5050649;28;20048;-67
2022/01/06 05:59:07;;;;;;;9.13;1.67;;;;;;;-142.75;100.00;78598.34;5032230;28;20033;-67
2022/01/06 06:01:32;;;;;;;13.80;1.97;;;;;;;-142.75;100.00;78600.31;5013290;28;20029;-67
2022/01/06 06:03:58;;;;;;;8.10;1.37;;;;;;;-142.75;100.00;78602.28;5012805;28;20295;-67
2022/01/06 06:06:23;;;;;;;7.77;1.77;;;;;;;-142.75;100.00;78604.25;5030631;28;20276;-67
2022/01/06 06:08:49;;;;;;;7.07;1.15;;;;;;;-142.75;100.00;78598.34;5030243;28;20076;-67
2022/01/06 06:11:14;;;;;;;8.23;1.20;;;;;;;-142.75;100.00;78600.31;5030637;28;20029;-67
2022/01/06 06:13:39;;;;;;;8.40;1.80;;;;;;;-142.75;100.00;78600.31;5030031;28;20088;-67
2022/01/06 06:16:05;;;;;;;6.27;1.20;;;;;;;-142.75;100.00;78604.25;5030482;28;20029;-67
2022/01/06 06:18:30;;;;;;;11.27;1.73;;;;;;;-142.75;100.00;78606.22;5012712;28;20772;-67
2022/01/06 06:20:55;;;;;;;6.95;1.40;;;;;;;-142.75;100.00;78614.09;5030455;28;20027;-67
2022/01/06 06:23:21;;;;;;;5.55;1.00;;;;;;;-142.75;100.00;78625.91;5030284;28;20279;-68
2022/01/06 06:25:46;;;;;;;11.57;2.05;;;;;;;-142.75;100.00;78623.94;5012495;28;20028;-67
2022/01/06 06:28:12;;;;;;;11.27;1.95;;;;;;;-142.75;100.00;78623.94;5029603;28;20071;-67
2022/01/06 06:30:37;;;;;;;9.40;1.50;;;;;;;-142.75;100.00;78641.66;5030170;28;20026;-68
2022/01/06 06:33:03;;;;;;;8.30;1.38;;;;;;;-142.75;100.00;78643.63;5030115;28;20028;-67
2022/01/06 06:35:29;;;;;;;5.40;1.13;;;;;;;-142.75;100.00;78649.53;5029951;28;20112;-68
2022/01/06 06:37:55;;;;;;;6.73;1.13;;;;;;;-142.75;100.00;78653.47;5029692;28;20056;-67
2022/01/06 06:40:22;;;;;;;11.35;2.42;;;;;;;-142.75;100.00;78661.34;5030037;28;20033;-68
2022/01/06 06:42:48;;;;;;;9.13;1.30;;;;;;;-142.75;100.00;78665.28;5029805;28;20029;-68
2022/01/06 06:45:14;;;;;;;8.48;1.48;;;;;;;-142.75;100.00;78663.31;5029869;28;20024;-67
2022/01/06 06:47:39;;;;;;;6.68;1.58;;;;;;;-142.75;100.00;78677.13;5030257;28;20387;-68
2022/01/06 06:50:05;;;;;;;8.80;1.42;;;;;;;-142.75;100.00;78673.19;5029976;28;20030;-67
2022/01/06 06:52:31;;;;;;;6.05;1.42;;;;;;;-142.75;100.00;78681.06;5012079;28;20025;-68
2022/01/06 06:54:56;;;;;;;10.07;1.80;;;;;;;-142.75;100.00;78685.00;5041260;28;20021;-68
2022/01/06 06:57:21;;;;;;;9.40;1.48;;;;;;;-142.75;100.00;78681.06;5031928;28;20037;-67
2022/01/06 06:59:46;;;;;;;9.00;1.83;;;;;;;-142.75;100.00;78681.06;5030127;28;20478;-68
2022/01/06 07:02:12;;;;;;;12.07;1.90;;;;;;;-142.75;100.00;78685.00;5030350;28;20282;-68
2022/01/06 07:04:37;;;;;;;8.20;1.20;;;;;;;-142.75;100.00;78685.00;5030275;28;20374;-68
2022/01/06 07:07:02;;;;;;;6.47;1.47;;;;;;;-142.75;100.00;78686.97;5029927;28;20276;-67
2022/01/06 07:09:28;;;;;;;5.72;1.50;;;;;;;-142.75;100.00;78681.06;5029941;28;20029;-68
2022/01/06 07:11:53;;;;;;;6.82;1.92;;;;;;;-142.75;100.00;78681.06;5012323;28;20029;-67
2022/01/06 07:14:18;;;;;;;8.40;1.20;;;;;;;-142.75;100.00;78673.19;5029903;28;20009;-69
2022/01/06 07:16:43;;;;;;;10.55;1.70;;;;;;;-142.75;100.00;78673.19;5029684;28;20034;-69
2022/01/06 07:19:09;;;;;;;9.37;1.47;;;;;;;-142.75;100.00;78675.16;5030300;28;20035;-69
2022/01/06 07:21:34;;;;;;;9.77;1.65;;;;;;;-142.75;100.00;78673.19;5029801;28;20037;-70
2022/01/06 07:23:59;;;;;;;8.30;1.70;;;;;;;-142.75;100.00;78681.06;5030511;28;20025;-69
2022/01/06 07:26:25;;;;;;;11.98;2.25;;;;;;;-142.75;100.00;78675.16;5030570;28;20191;-69
2022/01/06 07:28:50;;;;;;;10.27;1.52;;;;;;;-142.75;100.00;78683.03;5030435;28;20123;-69
2022/01/06 07:31:15;;;;;;;10.55;2.53;;;;;;;-142.75;100.00;78681.06;5029305;28;20112;-69
2022/01/06 07:33:40;;;;;;;10.43;1.70;;;;;;;-142.75;100.00;78677.13;5011792;28;20029;-69
2022/01/06 07:36:07;;;;;;;13.30;2.17;;;;;;;-142.75;100.00;78677.13;5029783;28;20784;-68
2022/01/06 07:38:32;;;;;;;;;;;;;;;-142.75;100.00;78679.09;5029720;28;20410;-67
2022/01/06 07:40:57;;;;;;;9.13;1.50;;;;;;;-142.75;100.00;78683.03;5029533;28;19992;-67
2022/01/06 07:43:23;;;;;;;9.50;1.27;;;;;;;-142.75;100.00;78692.88;5029585;28;20052;-67
2022/01/06 07:45:49;;;;;;;13.85;1.95;;;;;;;-142.75;100.00;78683.03;5029339;28;20559;-67
2022/01/06 07:48:25;;;;;;;5.40;1.52;;;;;;;-142.75;100.00;78683.03;5029298;28;20033;-67
2022/01/06 07:50:51;;;;;;;10.13;2.20;;;;;;;-142.75;100.00;78679.09;5029625;28;20022;-68
2022/01/06 07:53:16;;;;;;;16.23;2.50;;;;;;;-142.75;100.00;78669.25;5029613;28;20537;-67
2022/01/06 07:55:41;;;;;;;10.60;2.70;;;;;;;-142.75;100.00;78665.28;5011464;28;20039;-67
2022/01/06 07:58:07;;;;;;;5.20;1.90;;;;;;;-142.75;100.00;78659.38;5011519;28;20430;-68
2022/01/06 08:00:32;;;;;;;10.80;2.35;;;;;;;-142.75;100.00;78659.38;5011529;28;20486;-68
2022/01/06 08:02:57;;;;;;;17.85;3.20;;;;;;;-142.75;100.00;78657.41;5029416;28;20052;-68
2022/01/06 08:05:26;;;;;;;10.55;3.00;;;;;;;-142.75;100.00;78663.31;5029405;28;20075;-68
2022/01/06 08:07:52;;;;;;;13.17;2.97;;;;;;;-142.75;100.00;78665.28;5028990;28;20552;-69
2022/01/06 08:10:17;;;;;;;10.48;3.50;;;;;;;-142.75;100.00;78663.31;5030089;28;20029;-68
2022/01/06 08:12:43;;;;;;;13.25;2.95;;;;;;;-142.75;100.00;78663.31;5030551;28;20443;-68
2022/01/06 08:15:09;;;;;;;9.02;3.42;;;;;;;-142.75;100.00;78661.34;5029977;28;20018;-69
2022/01/06 08:17:34;;;;;;;16.40;3.42;;;;;;;-142.75;100.00;78657.41;5033808;28;20107;-70
2022/01/06 08:19:59;;;;;;;11.75;3.05;;;;;;;-142.75;100.00;78641.66;5049737;28;20112;-69
2022/01/06 08:22:25;;;;;;;13.23;3.83;;;;;;;-142.75;100.00;78623.94;5032139;28;20017;-69
2022/01/06 08:24:52;;;;;;;10.93;2.92;;;;;;;-142.75;100.00;78604.25;5032045;28;20017;-69
2022/01/06 08:27:18;;;;;;;9.47;2.33;;;;;;;-142.75;100.00;78592.44;5050024;28;20029;-69
2022/01/06 08:29:44;;;;;;;13.73;2.70;;;;;;;-142.75;100.00;78578.63;5051136;28;20039;-67
2022/01/06 08:32:09;;;;;;;12.50;2.88;;;;;;;-142.75;100.00;78578.63;5037822;28;20033;-68
2022/01/06 08:34:34;;;;;;;12.85;3.72;;;;;;;-142.75;100.00;78558.94;5033489;28;20029;-69
2022/01/06 08:37:00;;;;;;;12.70;3.75;;;;;;;-142.75;100.00;78551.06;5033337;28;20075;-68
2022/01/06 08:39:25;;;;;;;11.05;2.90;;;;;;;-142.75;100.00;78551.06;5033174;28;20028;-69
2022/01/06 08:41:51;;;;;;;13.88;3.45;;;;;;;-142.75;100.00;78507.75;5033475;28;20040;-69
2022/01/06 08:44:16;;;;;;;8.52;2.05;;;;;;;-142.75;100.00;78464.41;5034173;28;20021;-69
2022/01/06 08:46:42;;;;;;;8.10;2.40;;;;;;;-142.75;100.00;78440.78;5053152;28;20033;-68
2022/01/06 08:49:11;;;;;;;10.90;2.83;;;;;;;-142.75;100.00;78409.28;5052951;28;20017;-67
2022/01/06 08:51:40;;;;;;;8.17;2.47;;;;;;;-142.75;100.00;78367.91;5053111;28;20029;-69
2022/01/06 08:54:06;;;;;;;12.10;3.50;;;;;;;-142.75;100.00;78328.53;5052700;28;20033;-69
2022/01/06 08:56:31;;;;;;;;;;;;;;;-142.75;100.00;78306.88;5053527;28;20129;-68
2022/01/06 08:58:57;;;;;;;8.57;2.20;;;;;;;-142.75;100.00;78287.16;5052685;28;20066;-68
2022/01/06 09:01:22;;;;;;;13.00;2.30;;;;;;;-142.75;100.00;78255.66;5052532;28;20036;-69
2022/01/06 09:03:47;;;;;;;11.43;2.53;;;;;;;-142.75;100.00;78247.78;5015271;28;20325;-68
2022/01/06 09:06:13;;;;;;;8.73;2.03;;;;;;;-142.75;100.00;78212.34;5025545;28;20021;-69
2022/01/06 09:08:38;;;;;;;20.58;2.70;;;;;;;-142.75;100.00;78196.59;5052602;28;20060;-68
2022/01/06 09:11:03;;;;;;;12.57;2.47;;;;;;;-142.75;100.00;78151.28;5052791;28;20108;-68
2022/01/06 09:13:29;;;;;;;9.60;2.33;;;;;;;-142.75;100.00;78165.06;5052964;28;20021;-70
2022/01/06 09:15:54;;;;;;;12.18;2.50;;;;;;;-142.75;100.00;78192.66;5052242;28;20060;-68
2022/01/06 09:18:20;;;;;;;8.45;2.55;;;;;;;-142.75;100.00;78210.38;5052289;28;20044;-69
2022/01/06 09:20:45;;;;;;;9.57;2.33;;;;;;;-142.75;100.00;78194.63;5052740;28;20123;-68
2022/01/06 09:23:10;;;;;;;11.88;2.53;;;;;;;-142.75;100.00;78172.94;5052544;28;20029;-68
2022/01/06 09:25:36;;;;;;;9.07;2.35;;;;;;;-142.75;100.00;78147.34;5019451;28;20030;-68
2022/01/06 09:28:01;;;;;;;11.38;2.92;;;;;;;-142.75;100.00;78113.88;5031714;28;20457;-69
2022/01/06 09:30:26;;;;;;;12.50;2.30;;;;;;;-142.75;100.00;78113.88;5032041;28;20045;-69
2022/01/06 09:32:53;;;;;;;12.20;2.50;;;;;;;-142.75;100.00;78106.00;5032361;28;20061;-69
2022/01/06 09:35:19;;;;;;;9.70;1.87;;;;;;;-142.75;100.00;78092.22;5031902;28;20184;-69
2022/01/06 09:37:44;;;;;;;9.77;2.08;;;;;;;-142.75;100.00;78109.94;5032980;28;20115;-71
2022/01/06 09:40:10;;;;;;;9.63;1.77;;;;;;;-142.75;100.00;78072.53;5013440;28;20120;-69
2022/01/06 09:42:36;;;;;;;13.07;2.55;;;;;;;-142.75;100.00;78082.38;5031952;28;20132;-69
2022/01/06 09:45:04;;;;;;;8.07;2.20;;;;;;;-142.75;100.00;78058.72;5031533;28;20032;-69
2022/01/06 09:47:30;;;;;;;9.98;1.90;;;;;;;-142.75;100.00;78048.88;5031340;28;20039;-69
2022/01/06 09:49:56;;;;;;;16.70;2.67;;;;;;;-142.75;100.00;78023.28;5032144;28;20099;-69
2022/01/06 09:52:22;;;;;;;9.93;2.13;;;;;;;-142.75;100.00;78003.59;5032333;28;20059;-69
2022/01/06 09:54:47;;;;;;;7.53;1.25;;;;;;;-142.75;100.00;77981.94;5032339;28;20028;-69
2022/01/06 09:57:14;;;;;;;11.70;2.40;;;;;;;-142.75;100.00;77940.59;5032338;28;20029;-69
2022/01/06 09:59:43;;;;;;;9.70;2.00;;;;;;;-142.75;100.00;77934.69;5031933;28;20155;-69
2022/01/06 10:02:14;;;;;;;8.18;2.00;;;;;;;-142.75;100.00;77952.41;5032069;28;20025;-69
2022/01/06 10:04:40;;;;;;;7.93;1.38;;;;;;;-142.75;100.00;77974.06;5032038;28;20018;-70
2022/01/06 10:07:08;;;;;;;10.77;2.22;;;;;;;-142.75;100.00;78031.16;5031783;28;20032;-68
2022/01/06 10:09:36;;;;;;;13.18;2.38;;;;;;;-142.75;100.00;78080.41;5032215;28;20027;-68
2022/01/06 10:12:08;;;;;;;5.55;1.38;;;;;;;-142.75;100.00;78149.31;5033694;28;20389;-70
2022/01/06 10:14:44;;;;;;;11.88;2.20;;;;;;;-142.75;100.00;78176.88;5071536;22;20023;-65
2022/01/06 10:17:16;;;;;;;11.02;2.13;;;;;;;-142.75;100.00;78157.19;5009216;28;20038;-66
2022/01/06 10:19:43;;;;;;;10.88;1.98;;;;;;;-142.75;100.00;78090.25;4991283;28;20098;-66
2022/01/06 10:22:18;;;;;;;11.05;1.95;;;;;;;-142.75;100.00;78039.03;5010919;28;20049;-66
2022/01/06 10:24:46;;;;;;;10.80;2.92;;;;;;;-142.75;100.00;77987.84;5010876;28;20049;-65
2022/01/06 10:27:14;;;;;;;9.57;2.08;;;;;;;-142.75;100.00;77948.47;5010505;28;20034;-66
2022/01/06 10:29:45;;;;;;;12.20;2.30;;;;;;;-142.75;100.00;77922.88;5010005;28;20030;-66
2022/01/06 10:32:14;;;;;;;13.02;2.20;;;;;;;-142.75;100.00;77946.50;5010389;28;20037;-66
2022/01/06 10:34:41;;;;;;;7.30;2.03;;;;;;;-142.75;100.00;77922.88;4993113;28;20028;-66
2022/01/06 10:37:29;;;;;;;13.02;1.95;;;;;;;-142.75;100.00;77873.63;5010839;28;20026;-67
2022/01/06 10:39:58;;;;;;;8.15;2.08;;;;;;;-142.75;100.00;77824.41;4992791;28;20025;-66
2022/01/06 10:42:26;;;;;;;13.57;2.53;;;;;;;-142.75;100.00;77806.69;4993144;28;20061;-66
2022/01/06 10:44:57;;;;;;;12.43;2.30;;;;;;;-142.75;100.00;77842.13;4992740;28;20029;-66
2022/01/06 10:47:42;;;;;;;7.78;1.63;;;;;;;-142.75;100.00;77867.72;5010268;28;20022;-66
2022/01/06 10:50:10;;;;;;;11.88;2.17;;;;;;;-142.75;100.00;77881.50;5010046;28;20168;-66
2022/01/06 10:52:38;;;;;;;11.60;1.70;;;;;;;-142.75;100.00;77889.38;5009811;28;20021;-66
2022/01/06 10:55:11;;;;;;;13.55;1.77;;;;;;;-142.75;100.00;77901.19;5010532;28;20025;-66
2022/01/06 10:57:48;;;;;;;12.20;1.88;;;;;;;-142.75;100.00;77911.06;5010322;28;20441;-66
2022/01/06 11:00:16;;;;;;;11.07;1.92;;;;;;;-142.75;100.00;77889.38;5010149;28;20018;-65
2022/01/06 11:02:42;;;;;;;7.43;2.30;;;;;;;-142.75;100.00;77865.75;5010024;28;20056;-65
2022/01/06 11:05:07;;;;;;;12.02;2.03;;;;;;;-142.75;100.00;77940.59;5016005;28;20022;-65
2022/01/06 11:07:33;;;;;;;11.73;2.03;;;;;;;-142.75;100.00;77970.13;5029877;28;20021;-66
2022/01/06 11:09:58;;;;;;;8.45;1.65;;;;;;;-142.75;100.00;78015.41;5011913;28;20032;-65
2022/01/06 11:12:27;;;;;;;8.63;1.83;;;;;;;-142.75;100.00;78096.16;5012326;28;20079;-65
2022/01/06 11:14:53;;;;;;;8.73;2.00;;;;;;;-142.75;100.00;78094.19;5011626;28;20028;-65